sensor_id;sensor_type;location;lat;lon;timestamp;temperature;humidity
24091;DHT22;12272;52.426;17.100;2022-10-16T00:03:54;11.90;99.90
24091;DHT22;12272;52.426;17.100;2022-10-16T00:08:57;11.90;99.90
24091;DHT22;12272;52.426;17.100;2022-10-16T00:14:02;11.70;99.90
24091;DHT22;12272;52.426;17.100;2022-10-16T00:19:05;11.60;99.90
24091;DHT22;12272;52.426;17.100;2022-10-16T00:24:09;11.50;99.90
24091;DHT22;12272;52.426;17.100;2022-10-16T00:29:11;11.60;99.90
24091;DHT22;12272;52.426;17.100;2022-10-16T00:34:14;11.60;99.90
24091;DHT22;12272;52.426;17.100;2022-10-16T00:39:16;11.80;99.90
24091;DHT22;12272;52.426;17.100;2022-10-16T00:44:51;11.90;99.90
24091;DHT22;12272;52.426;17.100;2022-10-16T00:50:13;12.00;99.90
24091;DHT22;12272;52.426;17.100;2022-10-16T00:55:18;12.10;99.90
24091;DHT22;12272;52.426;17.100;2022-10-16T01:00:24;12.10;99.90
24091;DHT22;12272;52.426;17.100;2022-10-16T01:05:49;12.20;99.90
24091;DHT22;12272;52.426;17.100;2022-10-16T01:11:05;12.30;99.90
24091;DHT22;12272;52.426;17.100;2022-10-16T01:16:19;12.30;99.90
24091;DHT22;12272;52.426;17.100;2022-10-16T01:21:35;12.30;99.90
24091;DHT22;12272;52.426;17.100;2022-10-16T01:32:38;12.50;99.90
24091;DHT22;12272;52.426;17.100;2022-10-16T01:38:03;12.50;99.90
24091;DHT22;12272;52.426;17.100;2022-10-16T01:43:10;12.50;99.90
24091;DHT22;12272;52.426;17.100;2022-10-16T01:48:17;12.50;99.90
24091;DHT22;12272;52.426;17.100;2022-10-16T01:53:22;12.50;99.90
24091;DHT22;12272;52.426;17.100;2022-10-16T01:58:28;12.60;99.90
24091;DHT22;12272;52.426;17.100;2022-10-16T02:03:38;12.60;99.90
24091;DHT22;12272;52.426;17.100;2022-10-16T02:08:43;12.70;99.90
24091;DHT22;12272;52.426;17.100;2022-10-16T02:13:58;12.70;99.90
24091;DHT22;12272;52.426;17.100;2022-10-16T02:19:01;12.70;99.90
24091;DHT22;12272;52.426;17.100;2022-10-16T02:24:11;12.70;99.90
24091;DHT22;12272;52.426;17.100;2022-10-16T02:29:20;12.80;99.90
24091;DHT22;12272;52.426;17.100;2022-10-16T02:34:26;12.80;99.90
24091;DHT22;12272;52.426;17.100;2022-10-16T02:39:29;12.80;99.90
24091;DHT22;12272;52.426;17.100;2022-10-16T02:44:32;12.90;99.90
24091;DHT22;12272;52.426;17.100;2022-10-16T02:49:35;12.90;99.90
24091;DHT22;12272;52.426;17.100;2022-10-16T02:54:37;12.90;99.90
24091;DHT22;12272;52.426;17.100;2022-10-16T02:59:40;13.00;99.90
24091;DHT22;12272;52.426;17.100;2022-10-16T03:04:42;13.00;99.90
24091;DHT22;12272;52.426;17.100;2022-10-16T03:09:45;13.10;99.90
24091;DHT22;12272;52.426;17.100;2022-10-16T03:14:47;13.00;99.90
24091;DHT22;12272;52.426;17.100;2022-10-16T03:19:50;13.00;99.90
24091;DHT22;12272;52.426;17.100;2022-10-16T03:24:53;12.90;99.90
24091;DHT22;12272;52.426;17.100;2022-10-16T03:29:55;13.10;99.90
24091;DHT22;12272;52.426;17.100;2022-10-16T03:34:58;13.00;99.90
24091;DHT22;12272;52.426;17.100;2022-10-16T03:40:00;12.90;99.90
24091;DHT22;12272;52.426;17.100;2022-10-16T03:45:04;12.80;99.90
24091;DHT22;12272;52.426;17.100;2022-10-16T03:50:07;12.70;99.90
24091;DHT22;12272;52.426;17.100;2022-10-16T03:55:09;12.80;99.90
24091;DHT22;12272;52.426;17.100;2022-10-16T04:00:12;12.90;99.90
24091;DHT22;12272;52.426;17.100;2022-10-16T04:05:15;12.90;99.90
24091;DHT22;12272;52.426;17.100;2022-10-16T04:10:17;12.90;99.90
24091;DHT22;12272;52.426;17.100;2022-10-16T04:15:20;13.00;99.90
24091;DHT22;12272;52.426;17.100;2022-10-16T04:20:22;13.00;99.90
24091;DHT22;12272;52.426;17.100;2022-10-16T04:25:28;13.10;99.90
24091;DHT22;12272;52.426;17.100;2022-10-16T04:30:31;13.10;99.90
24091;DHT22;12272;52.426;17.100;2022-10-16T04:35:33;13.20;99.90
24091;DHT22;12272;52.426;17.100;2022-10-16T04:40:35;13.30;99.90
24091;DHT22;12272;52.426;17.100;2022-10-16T04:45:38;13.30;99.90
24091;DHT22;12272;52.426;17.100;2022-10-16T04:50:41;13.40;99.90
24091;DHT22;12272;52.426;17.100;2022-10-16T04:55:43;13.40;99.90
24091;DHT22;12272;52.426;17.100;2022-10-16T05:00:46;13.40;99.90
24091;DHT22;12272;52.426;17.100;2022-10-16T05:05:48;13.40;99.90
24091;DHT22;12272;52.426;17.100;2022-10-16T05:10:51;13.50;99.90
24091;DHT22;12272;52.426;17.100;2022-10-16T05:15:54;13.40;99.90
24091;DHT22;12272;52.426;17.100;2022-10-16T05:20:56;13.40;99.90
24091;DHT22;12272;52.426;17.100;2022-10-16T05:25:59;13.30;99.90
24091;DHT22;12272;52.426;17.100;2022-10-16T05:31:08;13.20;99.90
24091;DHT22;12272;52.426;17.100;2022-10-16T05:36:11;13.10;99.90
24091;DHT22;12272;52.426;17.100;2022-10-16T05:41:14;13.20;99.90
24091;DHT22;12272;52.426;17.100;2022-10-16T05:46:17;13.20;99.90
24091;DHT22;12272;52.426;17.100;2022-10-16T05:51:19;13.30;99.90
24091;DHT22;12272;52.426;17.100;2022-10-16T05:56:21;13.30;99.90
24091;DHT22;12272;52.426;17.100;2022-10-16T06:01:24;13.30;99.90
24091;DHT22;12272;52.426;17.100;2022-10-16T06:06:28;13.30;99.90
24091;DHT22;12272;52.426;17.100;2022-10-16T06:11:32;13.30;99.90
24091;DHT22;12272;52.426;17.100;2022-10-16T06:16:36;13.20;99.90
24091;DHT22;12272;52.426;17.100;2022-10-16T06:21:39;13.10;99.90
24091;DHT22;12272;52.426;17.100;2022-10-16T06:26:41;13.20;99.90
24091;DHT22;12272;52.426;17.100;2022-10-16T06:31:43;13.20;99.90
24091;DHT22;12272;52.426;17.100;2022-10-16T06:36:46;13.20;99.90
24091;DHT22;12272;52.426;17.100;2022-10-16T06:41:48;13.20;99.90
24091;DHT22;12272;52.426;17.100;2022-10-16T06:46:51;13.30;99.90
24091;DHT22;12272;52.426;17.100;2022-10-16T06:51:53;13.30;99.90
24091;DHT22;12272;52.426;17.100;2022-10-16T06:56:56;13.40;99.90
24091;DHT22;12272;52.426;17.100;2022-10-16T07:01:58;13.40;99.90
24091;DHT22;12272;52.426;17.100;2022-10-16T07:07:01;13.60;99.90
24091;DHT22;12272;52.426;17.100;2022-10-16T07:12:09;13.90;99.90
24091;DHT22;12272;52.426;17.100;2022-10-16T07:17:12;14.10;99.90
24091;DHT22;12272;52.426;17.100;2022-10-16T07:22:14;14.30;99.90
24091;DHT22;12272;52.426;17.100;2022-10-16T07:27:16;14.30;99.90
24091;DHT22;12272;52.426;17.100;2022-10-16T07:32:19;14.60;99.90
24091;DHT22;12272;52.426;17.100;2022-10-16T07:37:22;14.90;99.90
24091;DHT22;12272;52.426;17.100;2022-10-16T07:42:24;14.80;99.90
24091;DHT22;12272;52.426;17.100;2022-10-16T07:47:27;14.90;99.90
24091;DHT22;12272;52.426;17.100;2022-10-16T07:52:31;15.30;99.90
24091;DHT22;12272;52.426;17.100;2022-10-16T07:57:33;15.60;99.90
24091;DHT22;12272;52.426;17.100;2022-10-16T08:02:36;15.30;99.90
24091;DHT22;12272;52.426;17.100;2022-10-16T08:07:38;15.30;99.90
24091;DHT22;12272;52.426;17.100;2022-10-16T08:12:40;15.20;99.90
24091;DHT22;12272;52.426;17.100;2022-10-16T08:17:43;15.20;99.90
24091;DHT22;12272;52.426;17.100;2022-10-16T08:22:45;15.30;99.90
24091;DHT22;12272;52.426;17.100;2022-10-16T08:27:48;15.40;99.90
24091;DHT22;12272;52.426;17.100;2022-10-16T08:32:51;15.60;99.90
24091;DHT22;12272;52.426;17.100;2022-10-16T08:37:53;16.00;99.90
24091;DHT22;12272;52.426;17.100;2022-10-16T08:53:43;16.80;99.90
24091;DHT22;12272;52.426;17.100;2022-10-16T08:58:47;16.50;99.90
24091;DHT22;12272;52.426;17.100;2022-10-16T09:25:21;17.80;99.90
24091;DHT22;12272;52.426;17.100;2022-10-16T09:30:27;18.10;99.90
24091;DHT22;12272;52.426;17.100;2022-10-16T09:35:36;18.30;99.90
24091;DHT22;12272;52.426;17.100;2022-10-16T09:40:42;18.30;99.90
24091;DHT22;12272;52.426;17.100;2022-10-16T09:45:56;18.50;99.90
24091;DHT22;12272;52.426;17.100;2022-10-16T09:51:01;18.20;99.90
24091;DHT22;12272;52.426;17.100;2022-10-16T09:56:04;18.40;99.90
24091;DHT22;12272;52.426;17.100;2022-10-16T10:01:14;18.50;99.90
24091;DHT22;12272;52.426;17.100;2022-10-16T10:11:50;18.60;99.90
24091;DHT22;12272;52.426;17.100;2022-10-16T10:17:07;18.70;99.90
24091;DHT22;12272;52.426;17.100;2022-10-16T10:22:44;18.50;99.90
24091;DHT22;12272;52.426;17.100;2022-10-16T10:39:04;19.10;99.90
24091;DHT22;12272;52.426;17.100;2022-10-16T10:49:56;19.30;99.90
24091;DHT22;12272;52.426;17.100;2022-10-16T10:55:16;19.40;99.90
24091;DHT22;12272;52.426;17.100;2022-10-16T11:00:52;19.50;99.90
24091;DHT22;12272;52.426;17.100;2022-10-16T11:06:21;19.40;99.90
24091;DHT22;12272;52.426;17.100;2022-10-16T11:16:56;19.10;99.90
24091;DHT22;12272;52.426;17.100;2022-10-16T11:49:21;19.40;99.90
24091;DHT22;12272;52.426;17.100;2022-10-16T11:54:44;19.60;99.90
24091;DHT22;12272;52.426;17.100;2022-10-16T12:05:14;19.60;99.90
24091;DHT22;12272;52.426;17.100;2022-10-16T12:10:23;19.50;99.90
24091;DHT22;12272;52.426;17.100;2022-10-16T12:15:31;19.50;99.90
24091;DHT22;12272;52.426;17.100;2022-10-16T12:20:58;19.50;99.90
24091;DHT22;12272;52.426;17.100;2022-10-16T12:26:06;19.60;99.90
24091;DHT22;12272;52.426;17.100;2022-10-16T12:31:09;19.80;99.90
24091;DHT22;12272;52.426;17.100;2022-10-16T12:36:26;19.70;99.90
24091;DHT22;12272;52.426;17.100;2022-10-16T12:46:34;19.50;99.90
24091;DHT22;12272;52.426;17.100;2022-10-16T12:51:38;19.40;99.90
24091;DHT22;12272;52.426;17.100;2022-10-16T13:07:49;19.80;99.90
24091;DHT22;12272;52.426;17.100;2022-10-16T13:18:06;19.90;99.90
24091;DHT22;12272;52.426;17.100;2022-10-16T13:23:21;19.60;99.90
24091;DHT22;12272;52.426;17.100;2022-10-16T13:28:31;19.30;99.90
24091;DHT22;12272;52.426;17.100;2022-10-16T13:33:37;19.30;99.90
24091;DHT22;12272;52.426;17.100;2022-10-16T13:38:39;19.50;99.90
24091;DHT22;12272;52.426;17.100;2022-10-16T13:43:48;19.40;99.90
24091;DHT22;12272;52.426;17.100;2022-10-16T13:49:05;19.50;99.90
24091;DHT22;12272;52.426;17.100;2022-10-16T13:54:13;19.40;99.90
24091;DHT22;12272;52.426;17.100;2022-10-16T13:59:36;19.20;99.90
24091;DHT22;12272;52.426;17.100;2022-10-16T14:04:41;19.10;99.90
24091;DHT22;12272;52.426;17.100;2022-10-16T14:09:48;19.10;99.90
24091;DHT22;12272;52.426;17.100;2022-10-16T14:14:53;19.20;99.90
24091;DHT22;12272;52.426;17.100;2022-10-16T14:19:59;19.10;99.90
24091;DHT22;12272;52.426;17.100;2022-10-16T14:30:22;19.20;99.90
24091;DHT22;12272;52.426;17.100;2022-10-16T14:35:30;19.10;99.90
24091;DHT22;12272;52.426;17.100;2022-10-16T14:40:35;19.00;99.90
24091;DHT22;12272;52.426;17.100;2022-10-16T14:45:38;19.00;99.90
24091;DHT22;12272;52.426;17.100;2022-10-16T14:50:44;19.00;99.90
24091;DHT22;12272;52.426;17.100;2022-10-16T14:55:47;19.30;99.90
24091;DHT22;12272;52.426;17.100;2022-10-16T15:00:50;19.20;99.90
24091;DHT22;12272;52.426;17.100;2022-10-16T15:05:53;19.00;99.90
24091;DHT22;12272;52.426;17.100;2022-10-16T15:10:55;19.00;99.90
24091;DHT22;12272;52.426;17.100;2022-10-16T15:15:58;19.00;99.90
24091;DHT22;12272;52.426;17.100;2022-10-16T15:21:00;19.00;99.90
24091;DHT22;12272;52.426;17.100;2022-10-16T15:26:03;18.90;99.90
24091;DHT22;12272;52.426;17.100;2022-10-16T15:31:06;18.80;99.90
24091;DHT22;12272;52.426;17.100;2022-10-16T15:36:08;18.70;99.90
24091;DHT22;12272;52.426;17.100;2022-10-16T15:41:10;18.50;99.90
24091;DHT22;12272;52.426;17.100;2022-10-16T15:46:13;18.30;99.90
24091;DHT22;12272;52.426;17.100;2022-10-16T15:51:17;17.80;99.90
24091;DHT22;12272;52.426;17.100;2022-10-16T15:56:20;17.20;99.90
24091;DHT22;12272;52.426;17.100;2022-10-16T16:01:24;16.70;99.90
24091;DHT22;12272;52.426;17.100;2022-10-16T16:06:27;16.20;99.90
24091;DHT22;12272;52.426;17.100;2022-10-16T16:11:30;15.90;99.90
24091;DHT22;12272;52.426;17.100;2022-10-16T16:16:34;15.50;99.90
24091;DHT22;12272;52.426;17.100;2022-10-16T16:21:39;15.10;99.90
24091;DHT22;12272;52.426;17.100;2022-10-16T16:26:42;14.60;99.90
24091;DHT22;12272;52.426;17.100;2022-10-16T16:31:45;14.40;99.90
24091;DHT22;12272;52.426;17.100;2022-10-16T16:36:49;14.30;99.90
24091;DHT22;12272;52.426;17.100;2022-10-16T16:41:52;14.10;99.90
24091;DHT22;12272;52.426;17.100;2022-10-16T16:46:54;13.90;99.90
24091;DHT22;12272;52.426;17.100;2022-10-16T16:51:57;13.80;99.90
24091;DHT22;12272;52.426;17.100;2022-10-16T16:56:59;13.50;99.90
24091;DHT22;12272;52.426;17.100;2022-10-16T17:02:03;13.30;99.90
24091;DHT22;12272;52.426;17.100;2022-10-16T17:07:06;13.10;99.90
24091;DHT22;12272;52.426;17.100;2022-10-16T17:12:08;13.20;99.90
24091;DHT22;12272;52.426;17.100;2022-10-16T17:17:12;13.20;99.90
24091;DHT22;12272;52.426;17.100;2022-10-16T17:22:14;13.30;99.90
24091;DHT22;12272;52.426;17.100;2022-10-16T17:27:18;13.20;99.90
24091;DHT22;12272;52.426;17.100;2022-10-16T17:32:20;13.20;99.90
24091;DHT22;12272;52.426;17.100;2022-10-16T17:37:25;12.90;99.90
24091;DHT22;12272;52.426;17.100;2022-10-16T17:42:27;12.80;99.90
24091;DHT22;12272;52.426;17.100;2022-10-16T17:47:30;12.80;99.90
24091;DHT22;12272;52.426;17.100;2022-10-16T17:52:33;12.60;99.90
24091;DHT22;12272;52.426;17.100;2022-10-16T17:57:35;12.60;99.90
24091;DHT22;12272;52.426;17.100;2022-10-16T18:02:37;12.40;99.90
24091;DHT22;12272;52.426;17.100;2022-10-16T18:07:43;12.30;99.90
24091;DHT22;12272;52.426;17.100;2022-10-16T18:12:46;12.40;99.90
24091;DHT22;12272;52.426;17.100;2022-10-16T18:17:48;12.10;99.90
24091;DHT22;12272;52.426;17.100;2022-10-16T18:22:50;12.00;99.90
24091;DHT22;12272;52.426;17.100;2022-10-16T18:27:53;12.00;99.90
24091;DHT22;12272;52.426;17.100;2022-10-16T18:32:55;11.90;99.90
24091;DHT22;12272;52.426;17.100;2022-10-16T18:37:58;11.70;99.90
24091;DHT22;12272;52.426;17.100;2022-10-16T18:43:01;11.40;99.90
24091;DHT22;12272;52.426;17.100;2022-10-16T18:48:04;11.40;99.90
24091;DHT22;12272;52.426;17.100;2022-10-16T18:53:07;11.40;99.90
24091;DHT22;12272;52.426;17.100;2022-10-16T18:58:09;11.20;99.90
24091;DHT22;12272;52.426;17.100;2022-10-16T19:03:12;11.20;99.90
24091;DHT22;12272;52.426;17.100;2022-10-16T19:08:15;11.10;99.90
24091;DHT22;12272;52.426;17.100;2022-10-16T19:13:17;11.00;99.90
24091;DHT22;12272;52.426;17.100;2022-10-16T19:18:19;11.20;99.90
24091;DHT22;12272;52.426;17.100;2022-10-16T19:23:28;10.80;99.90
24091;DHT22;12272;52.426;17.100;2022-10-16T19:28:30;11.30;99.90
24091;DHT22;12272;52.426;17.100;2022-10-16T19:33:34;11.20;99.90
24091;DHT22;12272;52.426;17.100;2022-10-16T19:38:37;10.90;99.90
24091;DHT22;12272;52.426;17.100;2022-10-16T19:43:40;10.70;99.90
24091;DHT22;12272;52.426;17.100;2022-10-16T19:48:43;10.80;99.90
24091;DHT22;12272;52.426;17.100;2022-10-16T19:53:47;10.80;99.90
24091;DHT22;12272;52.426;17.100;2022-10-16T19:58:55;10.80;99.90
24091;DHT22;12272;52.426;17.100;2022-10-16T20:03:59;10.80;99.90
24091;DHT22;12272;52.426;17.100;2022-10-16T20:09:02;10.60;99.90
24091;DHT22;12272;52.426;17.100;2022-10-16T20:14:06;10.20;99.90
24091;DHT22;12272;52.426;17.100;2022-10-16T20:19:09;10.20;99.90
24091;DHT22;12272;52.426;17.100;2022-10-16T20:24:12;10.20;99.90
24091;DHT22;12272;52.426;17.100;2022-10-16T20:29:14;10.30;99.90
24091;DHT22;12272;52.426;17.100;2022-10-16T20:34:17;10.50;99.90
24091;DHT22;12272;52.426;17.100;2022-10-16T20:39:19;10.00;99.90
24091;DHT22;12272;52.426;17.100;2022-10-16T20:44:22;10.00;99.90
24091;DHT22;12272;52.426;17.100;2022-10-16T20:49:24;10.00;99.90
24091;DHT22;12272;52.426;17.100;2022-10-16T20:54:43;9.90;99.90
24091;DHT22;12272;52.426;17.100;2022-10-16T20:59:47;10.30;99.90
24091;DHT22;12272;52.426;17.100;2022-10-16T21:04:50;10.00;99.90
24091;DHT22;12272;52.426;17.100;2022-10-16T21:09:56;9.80;99.90
24091;DHT22;12272;52.426;17.100;2022-10-16T21:14:59;9.60;99.90
24091;DHT22;12272;52.426;17.100;2022-10-16T21:20:16;9.50;99.90
24091;DHT22;12272;52.426;17.100;2022-10-16T21:25:18;9.50;99.90
24091;DHT22;12272;52.426;17.100;2022-10-16T21:30:21;9.40;99.90
24091;DHT22;12272;52.426;17.100;2022-10-16T21:35:23;9.40;99.90
24091;DHT22;12272;52.426;17.100;2022-10-16T21:40:28;9.30;99.90
24091;DHT22;12272;52.426;17.100;2022-10-16T21:45:32;9.20;99.90
24091;DHT22;12272;52.426;17.100;2022-10-16T21:50:35;9.40;99.90
24091;DHT22;12272;52.426;17.100;2022-10-16T21:55:37;9.30;99.90
24091;DHT22;12272;52.426;17.100;2022-10-16T22:00:39;9.30;99.90
24091;DHT22;12272;52.426;17.100;2022-10-16T22:05:42;9.30;99.90
24091;DHT22;12272;52.426;17.100;2022-10-16T22:10:44;9.40;99.90
24091;DHT22;12272;52.426;17.100;2022-10-16T22:15:51;9.40;99.90
24091;DHT22;12272;52.426;17.100;2022-10-16T22:20:53;9.50;99.90
24091;DHT22;12272;52.426;17.100;2022-10-16T22:26:00;9.70;99.90
24091;DHT22;12272;52.426;17.100;2022-10-16T22:31:05;9.90;99.90
24091;DHT22;12272;52.426;17.100;2022-10-16T22:36:11;9.90;99.90
24091;DHT22;12272;52.426;17.100;2022-10-16T22:41:14;10.00;99.90
24091;DHT22;12272;52.426;17.100;2022-10-16T22:46:19;10.10;99.90
24091;DHT22;12272;52.426;17.100;2022-10-16T22:51:23;10.30;99.90
24091;DHT22;12272;52.426;17.100;2022-10-16T22:56:26;10.50;99.90
24091;DHT22;12272;52.426;17.100;2022-10-16T23:01:38;10.60;99.90
24091;DHT22;12272;52.426;17.100;2022-10-16T23:06:41;10.70;99.90
24091;DHT22;12272;52.426;17.100;2022-10-16T23:11:43;10.60;99.90
24091;DHT22;12272;52.426;17.100;2022-10-16T23:16:47;10.70;99.90
24091;DHT22;12272;52.426;17.100;2022-10-16T23:21:49;10.70;99.90
24091;DHT22;12272;52.426;17.100;2022-10-16T23:26:52;10.80;99.90
24091;DHT22;12272;52.426;17.100;2022-10-16T23:31:55;10.80;99.90
24091;DHT22;12272;52.426;17.100;2022-10-16T23:36:57;10.90;99.90
24091;DHT22;12272;52.426;17.100;2022-10-16T23:42:00;10.90;99.90
24091;DHT22;12272;52.426;17.100;2022-10-16T23:47:02;11.00;99.90
24091;DHT22;12272;52.426;17.100;2022-10-16T23:52:05;11.00;99.90
24091;DHT22;12272;52.426;17.100;2022-10-16T23:57:08;11.20;99.90
